sensor_id;sensor_type;location;lat;lon;timestamp;pressure;altitude;pressure_sealevel;temperature;humidity
68179;BME280;69812;42.632;23.440;2024-03-22T00:00:06;95163.47;;;0.04;72.82
68179;BME280;69812;42.632;23.440;2024-03-22T00:02:36;95158.28;;;-0.12;72.93
68179;BME280;69812;42.632;23.440;2024-03-22T00:05:05;95175.53;;;-0.03;73.71
68179;BME280;69812;42.632;23.440;2024-03-22T00:07:30;95169.47;;;-0.17;73.88
68179;BME280;69812;42.632;23.440;2024-03-22T00:09:56;95171.44;;;-0.24;74.86
68179;BME280;69812;42.632;23.440;2024-03-22T00:12:22;95168.25;;;-0.28;74.91
68179;BME280;69812;42.632;23.440;2024-03-22T00:14:48;95170.84;;;-0.29;75.02
68179;BME280;69812;42.632;23.440;2024-03-22T00:17:13;95164.91;;;-0.28;74.78
68179;BME280;69812;42.632;23.440;2024-03-22T00:19:39;95168.91;;;-0.43;75.01
68179;BME280;69812;42.632;23.440;2024-03-22T00:22:04;95171.91;;;-0.54;75.50
68179;BME280;69812;42.632;23.440;2024-03-22T00:24:29;95164.78;;;-0.65;76.08
68179;BME280;69812;42.632;23.440;2024-03-22T00:26:55;95172.75;;;-0.55;76.36
68179;BME280;69812;42.632;23.440;2024-03-22T00:29:20;95178.56;;;-0.53;75.62
68179;BME280;69812;42.632;23.440;2024-03-22T00:31:46;95172.56;;;-0.69;75.88
68179;BME280;69812;42.632;23.440;2024-03-22T00:34:11;95173.00;;;-0.80;76.30
68179;BME280;69812;42.632;23.440;2024-03-22T00:36:36;95180.81;;;-0.86;77.02
68179;BME280;69812;42.632;23.440;2024-03-22T00:39:02;95154.47;;;-0.99;77.67
68179;BME280;69812;42.632;23.440;2024-03-22T00:41:28;95166.06;;;-0.95;77.78
68179;BME280;69812;42.632;23.440;2024-03-22T00:43:53;95176.72;;;-0.89;77.69
68179;BME280;69812;42.632;23.440;2024-03-22T00:46:19;95174.44;;;-0.74;76.83
68179;BME280;69812;42.632;23.440;2024-03-22T00:48:46;95163.38;;;-0.91;77.21
68179;BME280;69812;42.632;23.440;2024-03-22T00:51:11;95173.06;;;-0.81;77.41
68179;BME280;69812;42.632;23.440;2024-03-22T00:53:37;95172.00;;;-0.76;77.38
68179;BME280;69812;42.632;23.440;2024-03-22T00:56:05;95156.47;;;-0.67;76.84
68179;BME280;69812;42.632;23.440;2024-03-22T00:58:31;95153.31;;;-0.72;75.83
68179;BME280;69812;42.632;23.440;2024-03-22T01:00:56;95159.81;;;-0.66;76.06
68179;BME280;69812;42.632;23.440;2024-03-22T01:03:22;95160.75;;;-0.69;76.36
68179;BME280;69812;42.632;23.440;2024-03-22T01:05:47;95147.56;;;-0.55;75.56
68179;BME280;69812;42.632;23.440;2024-03-22T01:08:16;95157.44;;;-0.50;75.74
68179;BME280;69812;42.632;23.440;2024-03-22T01:10:41;95144.38;;;-0.39;74.96
68179;BME280;69812;42.632;23.440;2024-03-22T01:13:07;95154.66;;;-0.44;74.93
68179;BME280;69812;42.632;23.440;2024-03-22T01:15:33;95160.34;;;-0.39;75.52
68179;BME280;69812;42.632;23.440;2024-03-22T01:17:58;95157.34;;;-0.09;74.26
68179;BME280;69812;42.632;23.440;2024-03-22T01:20:24;95155.78;;;-0.12;73.77
68179;BME280;69812;42.632;23.440;2024-03-22T01:22:49;95168.84;;;-0.23;74.04
68179;BME280;69812;42.632;23.440;2024-03-22T01:25:15;95164.63;;;-0.22;74.21
68179;BME280;69812;42.632;23.440;2024-03-22T01:27:40;95156.50;;;-0.29;73.40
68179;BME280;69812;42.632;23.440;2024-03-22T01:30:06;95171.03;;;-0.34;73.62
68179;BME280;69812;42.632;23.440;2024-03-22T01:32:31;95170.06;;;-0.31;73.79
68179;BME280;69812;42.632;23.440;2024-03-22T01:34:59;95166.84;;;-0.35;74.13
68179;BME280;69812;42.632;23.440;2024-03-22T01:37:25;95164.22;;;-0.32;73.92
68179;BME280;69812;42.632;23.440;2024-03-22T01:39:50;95164.97;;;-0.30;74.02
68179;BME280;69812;42.632;23.440;2024-03-22T01:42:16;95166.19;;;-0.38;74.29
68179;BME280;69812;42.632;23.440;2024-03-22T01:44:41;95157.19;;;-0.44;74.51
68179;BME280;69812;42.632;23.440;2024-03-22T01:47:06;95162.88;;;-0.39;74.53
68179;BME280;69812;42.632;23.440;2024-03-22T01:49:32;95162.00;;;-0.19;74.10
68179;BME280;69812;42.632;23.440;2024-03-22T01:51:57;95164.16;;;-0.11;73.04
68179;BME280;69812;42.632;23.440;2024-03-22T01:54:23;95162.75;;;-0.17;73.04
68179;BME280;69812;42.632;23.440;2024-03-22T01:56:48;95152.44;;;-0.31;72.99
68179;BME280;69812;42.632;23.440;2024-03-22T01:59:14;95165.25;;;-0.36;73.27
68179;BME280;69812;42.632;23.440;2024-03-22T02:01:40;95169.03;;;-0.46;73.67
68179;BME280;69812;42.632;23.440;2024-03-22T02:04:06;95170.69;;;-0.45;74.36
68179;BME280;69812;42.632;23.440;2024-03-22T02:06:31;95164.66;;;-0.62;74.06
68179;BME280;69812;42.632;23.440;2024-03-22T02:08:57;95160.59;;;-0.45;74.04
68179;BME280;69812;42.632;23.440;2024-03-22T02:11:23;95176.03;;;-0.53;72.87
68179;BME280;69812;42.632;23.440;2024-03-22T02:13:49;95177.34;;;-0.84;73.54
68179;BME280;69812;42.632;23.440;2024-03-22T02:16:17;95162.78;;;-1.18;74.71
68179;BME280;69812;42.632;23.440;2024-03-22T02:18:43;95183.81;;;-1.19;75.45
68179;BME280;69812;42.632;23.440;2024-03-22T02:21:09;95169.94;;;-1.29;75.52
68179;BME280;69812;42.632;23.440;2024-03-22T02:23:37;95180.28;;;-0.94;75.87
68179;BME280;69812;42.632;23.440;2024-03-22T02:26:06;95175.88;;;-0.89;74.54
68179;BME280;69812;42.632;23.440;2024-03-22T02:28:32;95182.25;;;-1.01;75.05
68179;BME280;69812;42.632;23.440;2024-03-22T02:30:59;95158.25;;;-1.10;74.86
68179;BME280;69812;42.632;23.440;2024-03-22T02:33:24;95186.34;;;-1.19;75.29
68179;BME280;69812;42.632;23.440;2024-03-22T02:35:54;95192.84;;;-1.35;75.96
68179;BME280;69812;42.632;23.440;2024-03-22T02:38:20;95198.56;;;-1.10;76.41
68179;BME280;69812;42.632;23.440;2024-03-22T02:40:47;95194.34;;;-0.89;75.98
68179;BME280;69812;42.632;23.440;2024-03-22T02:43:13;95183.63;;;-1.14;76.49
68179;BME280;69812;42.632;23.440;2024-03-22T02:45:39;95184.88;;;-1.25;76.42
68179;BME280;69812;42.632;23.440;2024-03-22T02:48:05;95199.91;;;-1.23;76.68
68179;BME280;69812;42.632;23.440;2024-03-22T02:50:34;95190.28;;;-1.34;77.12
68179;BME280;69812;42.632;23.440;2024-03-22T02:53:00;95195.59;;;-0.99;75.68
68179;BME280;69812;42.632;23.440;2024-03-22T02:55:28;95201.78;;;-0.86;75.26
68179;BME280;69812;42.632;23.440;2024-03-22T02:57:59;95204.16;;;-1.03;75.66
68179;BME280;69812;42.632;23.440;2024-03-22T03:00:24;95210.28;;;-1.31;76.35
68179;BME280;69812;42.632;23.440;2024-03-22T03:02:50;95216.31;;;-1.35;76.94
68179;BME280;69812;42.632;23.440;2024-03-22T03:05:16;95197.25;;;-1.62;77.87
68179;BME280;69812;42.632;23.440;2024-03-22T03:07:41;95211.19;;;-1.54;78.23
68179;BME280;69812;42.632;23.440;2024-03-22T03:10:07;95223.09;;;-1.59;78.44
68179;BME280;69812;42.632;23.440;2024-03-22T03:12:35;95226.28;;;-1.54;78.62
68179;BME280;69812;42.632;23.440;2024-03-22T03:15:01;95220.91;;;-1.67;78.90
68179;BME280;69812;42.632;23.440;2024-03-22T03:17:30;95216.19;;;-1.76;79.22
68179;BME280;69812;42.632;23.440;2024-03-22T03:19:55;95233.25;;;-1.60;79.30
68179;BME280;69812;42.632;23.440;2024-03-22T03:22:21;95239.53;;;-1.72;79.34
68179;BME280;69812;42.632;23.440;2024-03-22T03:24:46;95221.72;;;-1.90;79.81
68179;BME280;69812;42.632;23.440;2024-03-22T03:27:11;95239.34;;;-1.90;79.87
68179;BME280;69812;42.632;23.440;2024-03-22T03:29:37;95240.69;;;-1.57;79.11
68179;BME280;69812;42.632;23.440;2024-03-22T03:32:02;95234.41;;;-1.69;78.77
68179;BME280;69812;42.632;23.440;2024-03-22T03:34:28;95231.63;;;-1.85;78.91
68179;BME280;69812;42.632;23.440;2024-03-22T03:36:53;95239.63;;;-1.97;79.27
68179;BME280;69812;42.632;23.440;2024-03-22T03:39:19;95236.44;;;-2.02;79.72
68179;BME280;69812;42.632;23.440;2024-03-22T03:41:44;95263.25;;;-2.01;79.96
68179;BME280;69812;42.632;23.440;2024-03-22T03:44:14;95240.06;;;-2.10;79.98
68179;BME280;69812;42.632;23.440;2024-03-22T03:46:40;95246.44;;;-2.24;80.39
68179;BME280;69812;42.632;23.440;2024-03-22T03:49:05;95243.03;;;-2.23;80.44
68179;BME280;69812;42.632;23.440;2024-03-22T03:51:33;95258.44;;;-2.08;80.42
68179;BME280;69812;42.632;23.440;2024-03-22T03:53:58;95244.91;;;-2.29;80.85
68179;BME280;69812;42.632;23.440;2024-03-22T03:56:23;95248.41;;;-2.33;80.86
68179;BME280;69812;42.632;23.440;2024-03-22T03:58:49;95251.97;;;-2.38;81.37
68179;BME280;69812;42.632;23.440;2024-03-22T04:01:14;95244.00;;;-2.51;81.61
68179;BME280;69812;42.632;23.440;2024-03-22T04:03:43;95241.72;;;-2.57;81.76
68179;BME280;69812;42.632;23.440;2024-03-22T04:06:08;95247.66;;;-2.60;82.16
68179;BME280;69812;42.632;23.440;2024-03-22T04:08:34;95255.09;;;-2.57;82.76
68179;BME280;69812;42.632;23.440;2024-03-22T04:10:59;95230.28;;;-2.66;82.85
68179;BME280;69812;42.632;23.440;2024-03-22T04:13:26;95259.91;;;-2.51;82.95
68179;BME280;69812;42.632;23.440;2024-03-22T04:15:52;95260.72;;;-2.25;82.38
68179;BME280;69812;42.632;23.440;2024-03-22T04:18:18;95235.34;;;-2.42;82.09
68179;BME280;69812;42.632;23.440;2024-03-22T04:20:53;95259.38;;;-2.35;82.16
68179;BME280;69812;42.632;23.440;2024-03-22T04:23:18;95252.22;;;-2.46;81.88
68179;BME280;69812;42.632;23.440;2024-03-22T04:26:00;95251.56;;;-2.51;82.07
68179;BME280;69812;42.632;23.440;2024-03-22T04:28:29;95261.28;;;-2.42;82.26
68179;BME280;69812;42.632;23.440;2024-03-22T04:31:04;95274.09;;;-2.24;81.86
68179;BME280;69812;42.632;23.440;2024-03-22T04:33:32;95258.63;;;-2.37;81.88
68179;BME280;69812;42.632;23.440;2024-03-22T04:35:57;95276.19;;;-2.12;81.77
68179;BME280;69812;42.632;23.440;2024-03-22T04:38:27;95283.59;;;-2.08;82.39
68179;BME280;69812;42.632;23.440;2024-03-22T04:40:53;95283.91;;;-1.93;82.81
68179;BME280;69812;42.632;23.440;2024-03-22T04:43:19;95292.13;;;-1.64;82.99
68179;BME280;69812;42.632;23.440;2024-03-22T04:45:46;95271.41;;;-1.71;81.95
68179;BME280;69812;42.632;23.440;2024-03-22T04:48:20;95293.13;;;-1.47;81.37
68179;BME280;69812;42.632;23.440;2024-03-22T04:50:46;95287.13;;;-1.20;81.32
68179;BME280;69812;42.632;23.440;2024-03-22T04:53:13;95291.25;;;-0.75;80.91
68179;BME280;69812;42.632;23.440;2024-03-22T04:55:41;95286.81;;;0.12;79.84
68179;BME280;69812;42.632;23.440;2024-03-22T04:58:12;95287.53;;;1.43;77.66
68179;BME280;69812;42.632;23.440;2024-03-22T05:00:37;95285.13;;;2.58;72.07
68179;BME280;69812;42.632;23.440;2024-03-22T05:03:05;95298.88;;;3.32;62.46
68179;BME280;69812;42.632;23.440;2024-03-22T05:05:34;95289.75;;;3.59;57.96
68179;BME280;69812;42.632;23.440;2024-03-22T05:07:59;95283.75;;;3.90;56.39
68179;BME280;69812;42.632;23.440;2024-03-22T05:10:25;95294.63;;;4.64;55.64
68179;BME280;69812;42.632;23.440;2024-03-22T05:12:50;95298.09;;;5.45;53.57
68179;BME280;69812;42.632;23.440;2024-03-22T05:15:15;95299.63;;;6.26;51.94
68179;BME280;69812;42.632;23.440;2024-03-22T05:17:41;95294.25;;;7.04;49.30
68179;BME280;69812;42.632;23.440;2024-03-22T05:20:08;95302.31;;;8.06;47.01
68179;BME280;69812;42.632;23.440;2024-03-22T05:22:37;95289.78;;;8.93;43.67
68179;BME280;69812;42.632;23.440;2024-03-22T05:25:02;95293.53;;;10.06;42.97
68179;BME280;69812;42.632;23.440;2024-03-22T05:27:28;95300.97;;;11.02;39.59
68179;BME280;69812;42.632;23.440;2024-03-22T05:29:54;95293.59;;;11.57;38.41
68179;BME280;69812;42.632;23.440;2024-03-22T05:32:19;95297.53;;;11.51;37.21
68179;BME280;69812;42.632;23.440;2024-03-22T05:34:44;95299.09;;;11.14;37.50
68179;BME280;69812;42.632;23.440;2024-03-22T05:37:10;95304.69;;;11.48;37.30
68179;BME280;69812;42.632;23.440;2024-03-22T05:39:36;95308.88;;;12.17;36.90
68179;BME280;69812;42.632;23.440;2024-03-22T05:42:01;95300.03;;;12.94;35.01
68179;BME280;69812;42.632;23.440;2024-03-22T05:44:27;95312.66;;;12.98;34.60
68179;BME280;69812;42.632;23.440;2024-03-22T05:46:52;95306.28;;;12.92;35.44
68179;BME280;69812;42.632;23.440;2024-03-22T05:49:17;95316.66;;;14.17;33.07
68179;BME280;69812;42.632;23.440;2024-03-22T05:51:43;95303.00;;;14.77;31.12
68179;BME280;69812;42.632;23.440;2024-03-22T05:54:11;95306.03;;;15.15;30.65
68179;BME280;69812;42.632;23.440;2024-03-22T05:56:36;95310.25;;;15.92;29.71
68179;BME280;69812;42.632;23.440;2024-03-22T05:59:04;95310.53;;;16.46;28.63
68179;BME280;69812;42.632;23.440;2024-03-22T06:01:30;95315.16;;;17.15;27.32
68179;BME280;69812;42.632;23.440;2024-03-22T06:03:55;95326.00;;;17.81;27.12
68179;BME280;69812;42.632;23.440;2024-03-22T06:06:21;95320.63;;;17.59;26.92
68179;BME280;69812;42.632;23.440;2024-03-22T06:08:50;95318.09;;;17.43;27.57
68179;BME280;69812;42.632;23.440;2024-03-22T06:11:17;95327.03;;;16.37;29.25
68179;BME280;69812;42.632;23.440;2024-03-22T06:13:46;95322.75;;;17.24;28.99
68179;BME280;69812;42.632;23.440;2024-03-22T06:16:16;95312.63;;;17.92;28.01
68179;BME280;69812;42.632;23.440;2024-03-22T06:18:41;95312.72;;;17.99;28.07
68179;BME280;69812;42.632;23.440;2024-03-22T06:21:06;95326.31;;;17.55;28.82
68179;BME280;69812;42.632;23.440;2024-03-22T06:23:34;95321.84;;;17.40;29.21
68179;BME280;69812;42.632;23.440;2024-03-22T06:26:00;95321.94;;;17.55;28.86
68179;BME280;69812;42.632;23.440;2024-03-22T06:28:28;95322.91;;;17.85;27.71
68179;BME280;69812;42.632;23.440;2024-03-22T06:30:54;95328.53;;;18.65;25.75
68179;BME280;69812;42.632;23.440;2024-03-22T06:33:20;95324.78;;;18.67;25.92
68179;BME280;69812;42.632;23.440;2024-03-22T06:35:46;95326.69;;;19.55;24.30
68179;BME280;69812;42.632;23.440;2024-03-22T06:38:12;95329.66;;;18.33;25.73
68179;BME280;69812;42.632;23.440;2024-03-22T06:40:37;95331.72;;;16.50;27.83
68179;BME280;69812;42.632;23.440;2024-03-22T06:43:03;95319.56;;;16.50;27.76
68179;BME280;69812;42.632;23.440;2024-03-22T06:45:29;95340.66;;;16.14;28.04
68179;BME280;69812;42.632;23.440;2024-03-22T06:47:54;95332.50;;;16.50;27.01
68179;BME280;69812;42.632;23.440;2024-03-22T06:50:20;95321.88;;;17.01;27.52
68179;BME280;69812;42.632;23.440;2024-03-22T06:52:50;95341.22;;;16.82;26.48
68179;BME280;69812;42.632;23.440;2024-03-22T06:55:16;95335.16;;;17.06;25.75
68179;BME280;69812;42.632;23.440;2024-03-22T06:57:42;95332.06;;;16.47;27.86
68179;BME280;69812;42.632;23.440;2024-03-22T07:00:07;95333.28;;;16.92;27.28
68179;BME280;69812;42.632;23.440;2024-03-22T07:02:35;95329.53;;;16.78;26.43
68179;BME280;69812;42.632;23.440;2024-03-22T07:05:00;95332.06;;;16.38;26.93
68179;BME280;69812;42.632;23.440;2024-03-22T07:07:26;95347.88;;;16.68;26.55
68179;BME280;69812;42.632;23.440;2024-03-22T07:09:51;95346.00;;;17.41;25.92
68179;BME280;69812;42.632;23.440;2024-03-22T07:12:16;95351.31;;;17.48;26.53
68179;BME280;69812;42.632;23.440;2024-03-22T07:14:42;95353.97;;;17.00;27.37
68179;BME280;69812;42.632;23.440;2024-03-22T07:17:07;95338.53;;;17.69;26.06
68179;BME280;69812;42.632;23.440;2024-03-22T07:19:33;95358.44;;;17.22;26.18
68179;BME280;69812;42.632;23.440;2024-03-22T07:21:59;95335.53;;;17.26;25.69
68179;BME280;69812;42.632;23.440;2024-03-22T07:24:25;95338.22;;;17.10;25.35
68179;BME280;69812;42.632;23.440;2024-03-22T07:26:51;95343.50;;;16.60;26.31
68179;BME280;69812;42.632;23.440;2024-03-22T07:29:16;95355.47;;;16.86;26.42
68179;BME280;69812;42.632;23.440;2024-03-22T07:31:44;95345.31;;;17.24;26.24
68179;BME280;69812;42.632;23.440;2024-03-22T07:34:11;95347.28;;;17.76;25.72
68179;BME280;69812;42.632;23.440;2024-03-22T07:36:39;95356.41;;;16.93;27.73
68179;BME280;69812;42.632;23.440;2024-03-22T07:39:10;95348.56;;;16.46;28.00
68179;BME280;69812;42.632;23.440;2024-03-22T07:41:35;95344.53;;;16.35;28.49
68179;BME280;69812;42.632;23.440;2024-03-22T07:44:01;95353.13;;;14.93;30.77
68179;BME280;69812;42.632;23.440;2024-03-22T07:46:27;95351.59;;;14.74;30.60
68179;BME280;69812;42.632;23.440;2024-03-22T07:48:53;95345.03;;;15.97;28.93
68179;BME280;69812;42.632;23.440;2024-03-22T07:51:22;95350.59;;;15.52;29.49
68179;BME280;69812;42.632;23.440;2024-03-22T07:53:47;95353.44;;;15.32;29.44
68179;BME280;69812;42.632;23.440;2024-03-22T07:56:12;95330.78;;;15.18;29.91
68179;BME280;69812;42.632;23.440;2024-03-22T07:58:41;95328.38;;;16.08;29.39
68179;BME280;69812;42.632;23.440;2024-03-22T08:01:06;95339.31;;;16.59;29.02
68179;BME280;69812;42.632;23.440;2024-03-22T08:03:32;95351.06;;;17.34;27.74
68179;BME280;69812;42.632;23.440;2024-03-22T08:05:57;95358.66;;;17.04;27.43
68179;BME280;69812;42.632;23.440;2024-03-22T08:08:22;95355.63;;;15.53;28.77
68179;BME280;69812;42.632;23.440;2024-03-22T08:10:48;95352.28;;;15.18;29.61
68179;BME280;69812;42.632;23.440;2024-03-22T08:13:13;95357.91;;;14.27;30.52
68179;BME280;69812;42.632;23.440;2024-03-22T08:15:39;95343.03;;;14.03;31.09
68179;BME280;69812;42.632;23.440;2024-03-22T08:18:04;95344.16;;;13.83;31.98
68179;BME280;69812;42.632;23.440;2024-03-22T08:20:30;95343.69;;;13.51;33.20
68179;BME280;69812;42.632;23.440;2024-03-22T08:22:57;95350.69;;;13.59;32.96
68179;BME280;69812;42.632;23.440;2024-03-22T08:25:25;95342.56;;;13.08;32.07
68179;BME280;69812;42.632;23.440;2024-03-22T08:27:50;95332.81;;;13.02;32.91
68179;BME280;69812;42.632;23.440;2024-03-22T08:30:20;95342.75;;;12.60;33.60
68179;BME280;69812;42.632;23.440;2024-03-22T08:32:48;95337.81;;;12.76;34.45
68179;BME280;69812;42.632;23.440;2024-03-22T08:35:14;95339.72;;;12.37;34.40
68179;BME280;69812;42.632;23.440;2024-03-22T08:37:42;95337.50;;;11.25;35.84
68179;BME280;69812;42.632;23.440;2024-03-22T08:40:07;95336.38;;;11.08;37.76
68179;BME280;69812;42.632;23.440;2024-03-22T08:42:33;95340.88;;;11.16;36.77
68179;BME280;69812;42.632;23.440;2024-03-22T08:44:58;95334.94;;;11.15;37.02
68179;BME280;69812;42.632;23.440;2024-03-22T08:47:25;95341.97;;;11.13;36.26
68179;BME280;69812;42.632;23.440;2024-03-22T08:49:51;95348.28;;;11.09;37.09
68179;BME280;69812;42.632;23.440;2024-03-22T08:52:16;95346.44;;;10.80;37.24
68179;BME280;69812;42.632;23.440;2024-03-22T08:54:41;95343.69;;;11.03;37.86
68179;BME280;69812;42.632;23.440;2024-03-22T08:57:11;95348.97;;;9.86;39.40
68179;BME280;69812;42.632;23.440;2024-03-22T08:59:39;95340.38;;;10.51;38.73
68179;BME280;69812;42.632;23.440;2024-03-22T09:02:05;95343.28;;;10.67;39.10
68179;BME280;69812;42.632;23.440;2024-03-22T09:04:31;95339.38;;;10.42;38.04
68179;BME280;69812;42.632;23.440;2024-03-22T09:06:59;95332.56;;;10.52;39.13
68179;BME280;69812;42.632;23.440;2024-03-22T09:09:27;95336.78;;;10.63;39.10
68179;BME280;69812;42.632;23.440;2024-03-22T09:11:52;95341.56;;;10.77;39.16
68179;BME280;69812;42.632;23.440;2024-03-22T09:14:18;95326.03;;;11.19;38.18
68179;BME280;69812;42.632;23.440;2024-03-22T09:16:43;95342.66;;;11.25;36.87
68179;BME280;69812;42.632;23.440;2024-03-22T09:19:08;95338.38;;;10.95;37.15
68179;BME280;69812;42.632;23.440;2024-03-22T09:21:37;95321.66;;;10.18;39.45
68179;BME280;69812;42.632;23.440;2024-03-22T09:24:02;95331.00;;;10.40;41.40
68179;BME280;69812;42.632;23.440;2024-03-22T09:26:32;95317.19;;;10.62;38.22
68179;BME280;69812;42.632;23.440;2024-03-22T09:28:57;95318.03;;;11.13;38.54
68179;BME280;69812;42.632;23.440;2024-03-22T09:31:26;95319.97;;;11.49;38.16
68179;BME280;69812;42.632;23.440;2024-03-22T09:33:54;95314.41;;;11.44;35.76
68179;BME280;69812;42.632;23.440;2024-03-22T09:36:22;95300.88;;;11.62;37.46
68179;BME280;69812;42.632;23.440;2024-03-22T09:55:50;95310.00;;;11.06;37.50
68179;BME280;69812;42.632;23.440;2024-03-22T09:58:23;95310.75;;;11.37;38.09
68179;BME280;69812;42.632;23.440;2024-03-22T10:00:48;95304.53;;;11.40;36.29
68179;BME280;69812;42.632;23.440;2024-03-22T10:03:16;95319.03;;;11.60;35.58
68179;BME280;69812;42.632;23.440;2024-03-22T10:05:42;95302.00;;;11.49;36.34
68179;BME280;69812;42.632;23.440;2024-03-22T10:08:07;95306.56;;;11.56;35.91
68179;BME280;69812;42.632;23.440;2024-03-22T10:45:14;95257.78;;;10.76;36.60
68179;BME280;69812;42.632;23.440;2024-03-22T10:58:48;95241.00;;;12.28;34.32
68179;BME280;69812;42.632;23.440;2024-03-22T11:02:02;95259.59;;;12.77;32.82
68179;BME280;69812;42.632;23.440;2024-03-22T11:05:04;95252.59;;;13.15;31.13
68179;BME280;69812;42.632;23.440;2024-03-22T11:30:53;95222.88;;;12.75;33.94
68179;BME280;69812;42.632;23.440;2024-03-22T11:33:51;95211.66;;;12.94;32.15
68179;BME280;69812;42.632;23.440;2024-03-22T11:36:55;95220.81;;;12.79;32.05
68179;BME280;69812;42.632;23.440;2024-03-22T11:40:21;95215.22;;;12.65;31.71
68179;BME280;69812;42.632;23.440;2024-03-22T11:46:26;95205.91;;;11.80;33.10
68179;BME280;69812;42.632;23.440;2024-03-22T12:10:12;95179.41;;;12.17;32.00
68179;BME280;69812;42.632;23.440;2024-03-22T12:47:30;95129.56;;;13.87;30.24
68179;BME280;69812;42.632;23.440;2024-03-22T13:07:04;95132.16;;;14.22;30.13
68179;BME280;69812;42.632;23.440;2024-03-22T13:30:48;95104.78;;;12.98;30.97
68179;BME280;69812;42.632;23.440;2024-03-22T13:34:06;95086.13;;;12.60;30.76
68179;BME280;69812;42.632;23.440;2024-03-22T13:54:50;95081.31;;;13.01;31.50
68179;BME280;69812;42.632;23.440;2024-03-22T14:21:32;95031.59;;;12.65;31.25
68179;BME280;69812;42.632;23.440;2024-03-22T16:09:38;95053.38;;;10.46;37.17
68179;BME280;69812;42.632;23.440;2024-03-22T16:12:09;95077.66;;;10.52;37.60
